sensor_id;sensor_type;location;lat;lon;timestamp;P1;durP1;ratioP1;P2;durP2;ratioP2
10144;SDS011;5113;41.822;23.564;2022-07-23T00:02:05;12.73;;;6.60;;
10144;SDS011;5113;41.822;23.564;2022-07-23T00:05:12;7.40;;;6.63;;
10144;SDS011;5113;41.822;23.564;2022-07-23T00:08:20;6.43;;;5.83;;
10144;SDS011;5113;41.822;23.564;2022-07-23T00:11:26;12.67;;;6.60;;
10144;SDS011;5113;41.822;23.564;2022-07-23T00:14:32;7.10;;;6.40;;
10144;SDS011;5113;41.822;23.564;2022-07-23T00:17:39;8.37;;;7.17;;
10144;SDS011;5113;41.822;23.564;2022-07-23T00:20:45;10.33;;;5.67;;
10144;SDS011;5113;41.822;23.564;2022-07-23T00:23:52;6.90;;;6.30;;
10144;SDS011;5113;41.822;23.564;2022-07-23T00:26:59;9.87;;;6.60;;
10144;SDS011;5113;41.822;23.564;2022-07-23T00:30:05;6.47;;;5.30;;
10144;SDS011;5113;41.822;23.564;2022-07-23T00:33:12;8.20;;;6.33;;
10144;SDS011;5113;41.822;23.564;2022-07-23T00:36:18;6.87;;;5.93;;
10144;SDS011;5113;41.822;23.564;2022-07-23T00:39:26;6.40;;;5.87;;
10144;SDS011;5113;41.822;23.564;2022-07-23T00:42:32;6.30;;;5.70;;
10144;SDS011;5113;41.822;23.564;2022-07-23T00:45:38;6.33;;;5.70;;
10144;SDS011;5113;41.822;23.564;2022-07-23T00:48:45;6.70;;;6.10;;
10144;SDS011;5113;41.822;23.564;2022-07-23T00:51:51;7.60;;;6.87;;
10144;SDS011;5113;41.822;23.564;2022-07-23T00:55:00;7.07;;;6.30;;
10144;SDS011;5113;41.822;23.564;2022-07-23T00:58:07;8.73;;;6.57;;
10144;SDS011;5113;41.822;23.564;2022-07-23T01:01:14;8.73;;;7.83;;
10144;SDS011;5113;41.822;23.564;2022-07-23T01:04:20;8.20;;;6.87;;
10144;SDS011;5113;41.822;23.564;2022-07-23T01:07:26;7.47;;;6.53;;
10144;SDS011;5113;41.822;23.564;2022-07-23T01:10:35;7.40;;;5.97;;
10144;SDS011;5113;41.822;23.564;2022-07-23T01:13:42;7.67;;;6.77;;
10144;SDS011;5113;41.822;23.564;2022-07-23T01:16:49;8.00;;;7.00;;
10144;SDS011;5113;41.822;23.564;2022-07-23T01:19:55;7.23;;;6.53;;
10144;SDS011;5113;41.822;23.564;2022-07-23T01:23:03;7.30;;;6.60;;
10144;SDS011;5113;41.822;23.564;2022-07-23T01:26:09;6.80;;;6.10;;
10144;SDS011;5113;41.822;23.564;2022-07-23T01:29:15;7.80;;;7.00;;
10144;SDS011;5113;41.822;23.564;2022-07-23T01:32:22;7.60;;;6.80;;
10144;SDS011;5113;41.822;23.564;2022-07-23T01:35:29;8.20;;;7.40;;
10144;SDS011;5113;41.822;23.564;2022-07-23T01:38:36;7.90;;;6.63;;
10144;SDS011;5113;41.822;23.564;2022-07-23T01:41:43;9.77;;;7.23;;
10144;SDS011;5113;41.822;23.564;2022-07-23T01:44:55;7.83;;;6.80;;
10144;SDS011;5113;41.822;23.564;2022-07-23T01:48:01;10.97;;;6.10;;
10144;SDS011;5113;41.822;23.564;2022-07-23T01:51:13;9.07;;;6.90;;
10144;SDS011;5113;41.822;23.564;2022-07-23T01:54:21;6.70;;;6.10;;
10144;SDS011;5113;41.822;23.564;2022-07-23T01:57:28;7.17;;;6.43;;
10144;SDS011;5113;41.822;23.564;2022-07-23T02:00:36;6.83;;;6.13;;
10144;SDS011;5113;41.822;23.564;2022-07-23T02:03:42;9.03;;;7.70;;
10144;SDS011;5113;41.822;23.564;2022-07-23T02:06:49;8.37;;;7.57;;
10144;SDS011;5113;41.822;23.564;2022-07-23T02:09:57;10.57;;;6.77;;
10144;SDS011;5113;41.822;23.564;2022-07-23T02:13:03;10.50;;;7.20;;
10144;SDS011;5113;41.822;23.564;2022-07-23T02:16:10;8.07;;;6.67;;
10144;SDS011;5113;41.822;23.564;2022-07-23T02:19:16;7.13;;;6.33;;
10144;SDS011;5113;41.822;23.564;2022-07-23T02:22:22;7.60;;;6.80;;
10144;SDS011;5113;41.822;23.564;2022-07-23T02:25:30;8.27;;;7.50;;
10144;SDS011;5113;41.822;23.564;2022-07-23T02:28:36;9.97;;;9.07;;
10144;SDS011;5113;41.822;23.564;2022-07-23T02:31:43;9.43;;;7.70;;
10144;SDS011;5113;41.822;23.564;2022-07-23T02:34:50;12.07;;;8.93;;
10144;SDS011;5113;41.822;23.564;2022-07-23T02:37:56;13.03;;;9.73;;
10144;SDS011;5113;41.822;23.564;2022-07-23T02:41:04;10.73;;;9.63;;
10144;SDS011;5113;41.822;23.564;2022-07-23T02:44:10;9.07;;;7.87;;
10144;SDS011;5113;41.822;23.564;2022-07-23T02:47:16;9.33;;;7.13;;
10144;SDS011;5113;41.822;23.564;2022-07-23T02:50:22;8.87;;;6.80;;
10144;SDS011;5113;41.822;23.564;2022-07-23T02:53:28;10.60;;;6.53;;
10144;SDS011;5113;41.822;23.564;2022-07-23T02:56:36;8.83;;;7.67;;
10144;SDS011;5113;41.822;23.564;2022-07-23T02:59:43;8.67;;;5.73;;
10144;SDS011;5113;41.822;23.564;2022-07-23T03:02:49;6.17;;;5.57;;
10144;SDS011;5113;41.822;23.564;2022-07-23T03:05:56;9.87;;;7.83;;
10144;SDS011;5113;41.822;23.564;2022-07-23T03:09:02;6.80;;;6.10;;
10144;SDS011;5113;41.822;23.564;2022-07-23T03:12:10;11.93;;;7.17;;
10144;SDS011;5113;41.822;23.564;2022-07-23T03:15:17;10.40;;;6.77;;
10144;SDS011;5113;41.822;23.564;2022-07-23T03:18:24;8.17;;;6.77;;
10144;SDS011;5113;41.822;23.564;2022-07-23T03:21:30;10.10;;;6.80;;
10144;SDS011;5113;41.822;23.564;2022-07-23T03:24:36;9.47;;;6.73;;
10144;SDS011;5113;41.822;23.564;2022-07-23T03:28:01;9.47;;;6.83;;
10144;SDS011;5113;41.822;23.564;2022-07-23T03:31:07;9.63;;;7.77;;
10144;SDS011;5113;41.822;23.564;2022-07-23T03:34:13;14.27;;;7.87;;
10144;SDS011;5113;41.822;23.564;2022-07-23T03:37:20;14.90;;;8.50;;
10144;SDS011;5113;41.822;23.564;2022-07-23T03:40:26;11.60;;;7.77;;
10144;SDS011;5113;41.822;23.564;2022-07-23T03:43:34;11.60;;;8.07;;
10144;SDS011;5113;41.822;23.564;2022-07-23T03:46:40;12.27;;;8.20;;
10144;SDS011;5113;41.822;23.564;2022-07-23T03:49:46;11.50;;;7.27;;
10144;SDS011;5113;41.822;23.564;2022-07-23T03:52:53;11.53;;;9.17;;
10144;SDS011;5113;41.822;23.564;2022-07-23T03:55:59;8.53;;;7.23;;
10144;SDS011;5113;41.822;23.564;2022-07-23T03:59:07;13.70;;;8.77;;
10144;SDS011;5113;41.822;23.564;2022-07-23T04:02:13;11.40;;;9.63;;
10144;SDS011;5113;41.822;23.564;2022-07-23T04:05:20;10.17;;;7.87;;
10144;SDS011;5113;41.822;23.564;2022-07-23T04:08:27;15.87;;;9.57;;
10144;SDS011;5113;41.822;23.564;2022-07-23T04:11:33;11.47;;;8.20;;
10144;SDS011;5113;41.822;23.564;2022-07-23T04:14:41;11.60;;;7.97;;
10144;SDS011;5113;41.822;23.564;2022-07-23T04:17:47;10.47;;;8.03;;
10144;SDS011;5113;41.822;23.564;2022-07-23T04:20:54;9.97;;;7.27;;
10144;SDS011;5113;41.822;23.564;2022-07-23T04:24:01;13.50;;;8.53;;
10144;SDS011;5113;41.822;23.564;2022-07-23T04:27:07;13.47;;;8.40;;
10144;SDS011;5113;41.822;23.564;2022-07-23T04:30:15;13.47;;;9.67;;
10144;SDS011;5113;41.822;23.564;2022-07-23T04:33:21;13.63;;;9.33;;
10144;SDS011;5113;41.822;23.564;2022-07-23T04:36:27;14.43;;;9.00;;
10144;SDS011;5113;41.822;23.564;2022-07-23T04:39:33;14.30;;;9.40;;
10144;SDS011;5113;41.822;23.564;2022-07-23T04:42:40;12.37;;;9.10;;
10144;SDS011;5113;41.822;23.564;2022-07-23T04:45:47;17.67;;;11.13;;
10144;SDS011;5113;41.822;23.564;2022-07-23T04:48:53;12.90;;;9.57;;
10144;SDS011;5113;41.822;23.564;2022-07-23T04:52:00;14.37;;;9.87;;
10144;SDS011;5113;41.822;23.564;2022-07-23T04:55:07;10.97;;;9.23;;
10144;SDS011;5113;41.822;23.564;2022-07-23T04:58:13;14.67;;;10.10;;
10144;SDS011;5113;41.822;23.564;2022-07-23T05:01:21;14.30;;;11.07;;
10144;SDS011;5113;41.822;23.564;2022-07-23T05:04:27;12.90;;;9.60;;
10144;SDS011;5113;41.822;23.564;2022-07-23T05:07:34;14.87;;;9.53;;
10144;SDS011;5113;41.822;23.564;2022-07-23T05:10:40;12.60;;;9.47;;
10144;SDS011;5113;41.822;23.564;2022-07-23T05:13:46;16.73;;;10.33;;
10144;SDS011;5113;41.822;23.564;2022-07-23T05:16:54;13.20;;;10.37;;
10144;SDS011;5113;41.822;23.564;2022-07-23T05:20:01;14.90;;;10.07;;
10144;SDS011;5113;41.822;23.564;2022-07-23T05:23:07;13.87;;;11.30;;
10144;SDS011;5113;41.822;23.564;2022-07-23T05:26:14;13.60;;;11.10;;
10144;SDS011;5113;41.822;23.564;2022-07-23T05:29:21;11.93;;;10.73;;
10144;SDS011;5113;41.822;23.564;2022-07-23T05:32:29;12.53;;;9.87;;
10144;SDS011;5113;41.822;23.564;2022-07-23T05:35:37;14.70;;;11.13;;
10144;SDS011;5113;41.822;23.564;2022-07-23T05:38:43;12.37;;;8.27;;
10144;SDS011;5113;41.822;23.564;2022-07-23T05:41:49;8.90;;;7.67;;
10144;SDS011;5113;41.822;23.564;2022-07-23T05:44:56;11.43;;;8.63;;
10144;SDS011;5113;41.822;23.564;2022-07-23T05:48:04;8.50;;;7.53;;
10144;SDS011;5113;41.822;23.564;2022-07-23T05:51:10;10.33;;;8.87;;
10144;SDS011;5113;41.822;23.564;2022-07-23T05:54:17;13.57;;;8.83;;
10144;SDS011;5113;41.822;23.564;2022-07-23T05:57:23;10.67;;;7.13;;
10144;SDS011;5113;41.822;23.564;2022-07-23T06:00:29;12.97;;;7.73;;
10144;SDS011;5113;41.822;23.564;2022-07-23T06:03:37;13.63;;;6.90;;
10144;SDS011;5113;41.822;23.564;2022-07-23T06:06:43;11.47;;;7.53;;
10144;SDS011;5113;41.822;23.564;2022-07-23T06:09:50;8.13;;;7.33;;
10144;SDS011;5113;41.822;23.564;2022-07-23T06:12:55;9.63;;;7.27;;
10144;SDS011;5113;41.822;23.564;2022-07-23T06:16:06;8.93;;;7.00;;
10144;SDS011;5113;41.822;23.564;2022-07-23T06:19:13;8.03;;;7.07;;
10144;SDS011;5113;41.822;23.564;2022-07-23T06:22:20;13.30;;;7.43;;
10144;SDS011;5113;41.822;23.564;2022-07-23T06:25:27;9.90;;;7.23;;
10144;SDS011;5113;41.822;23.564;2022-07-23T06:28:34;8.50;;;7.33;;
10144;SDS011;5113;41.822;23.564;2022-07-23T06:31:39;10.33;;;8.70;;
10144;SDS011;5113;41.822;23.564;2022-07-23T06:34:47;11.80;;;8.77;;
10144;SDS011;5113;41.822;23.564;2022-07-23T06:37:53;11.23;;;10.13;;
10144;SDS011;5113;41.822;23.564;2022-07-23T06:41:00;13.27;;;8.37;;
10144;SDS011;5113;41.822;23.564;2022-07-23T06:44:06;12.13;;;10.60;;
10144;SDS011;5113;41.822;23.564;2022-07-23T06:47:12;9.07;;;8.17;;
10144;SDS011;5113;41.822;23.564;2022-07-23T06:50:20;10.37;;;6.70;;
10144;SDS011;5113;41.822;23.564;2022-07-23T06:53:26;5.93;;;5.40;;
10144;SDS011;5113;41.822;23.564;2022-07-23T06:56:32;8.37;;;6.63;;
10144;SDS011;5113;41.822;23.564;2022-07-23T06:59:38;7.20;;;6.57;;
10144;SDS011;5113;41.822;23.564;2022-07-23T07:02:45;7.53;;;6.27;;
10144;SDS011;5113;41.822;23.564;2022-07-23T07:05:52;6.80;;;6.10;;
10144;SDS011;5113;41.822;23.564;2022-07-23T07:08:59;8.23;;;7.40;;
10144;SDS011;5113;41.822;23.564;2022-07-23T07:12:06;9.20;;;5.80;;
10144;SDS011;5113;41.822;23.564;2022-07-23T07:15:13;9.43;;;7.10;;
10144;SDS011;5113;41.822;23.564;2022-07-23T07:18:19;7.35;;;6.65;;
10144;SDS011;5113;41.822;23.564;2022-07-23T07:21:27;9.23;;;7.07;;
10144;SDS011;5113;41.822;23.564;2022-07-23T07:24:34;7.68;;;6.78;;
10144;SDS011;5113;41.822;23.564;2022-07-23T07:27:42;6.57;;;5.97;;
10144;SDS011;5113;41.822;23.564;2022-07-23T07:30:49;7.78;;;5.90;;
10144;SDS011;5113;41.822;23.564;2022-07-23T07:33:56;6.78;;;6.13;;
10144;SDS011;5113;41.822;23.564;2022-07-23T07:37:04;10.25;;;7.63;;
10144;SDS011;5113;41.822;23.564;2022-07-23T07:40:12;7.38;;;5.75;;
10144;SDS011;5113;41.822;23.564;2022-07-23T07:43:18;7.05;;;6.35;;
10144;SDS011;5113;41.822;23.564;2022-07-23T07:46:24;10.35;;;6.28;;
10144;SDS011;5113;41.822;23.564;2022-07-23T07:49:32;6.88;;;6.13;;
10144;SDS011;5113;41.822;23.564;2022-07-23T07:52:40;8.95;;;6.47;;
10144;SDS011;5113;41.822;23.564;2022-07-23T07:55:47;6.53;;;5.65;;
10144;SDS011;5113;41.822;23.564;2022-07-23T07:58:55;7.10;;;6.43;;
10144;SDS011;5113;41.822;23.564;2022-07-23T08:02:01;8.98;;;6.32;;
10144;SDS011;5113;41.822;23.564;2022-07-23T08:05:08;8.23;;;6.68;;
10144;SDS011;5113;41.822;23.564;2022-07-23T08:08:16;7.32;;;6.57;;
10144;SDS011;5113;41.822;23.564;2022-07-23T08:11:23;8.45;;;6.15;;
10144;SDS011;5113;41.822;23.564;2022-07-23T08:14:30;7.15;;;6.40;;
10144;SDS011;5113;41.822;23.564;2022-07-23T08:17:36;6.70;;;6.00;;
10144;SDS011;5113;41.822;23.564;2022-07-23T08:20:43;9.05;;;7.20;;
10144;SDS011;5113;41.822;23.564;2022-07-23T08:23:50;8.27;;;5.68;;
10144;SDS011;5113;41.822;23.564;2022-07-23T08:26:57;7.47;;;5.35;;
10144;SDS011;5113;41.822;23.564;2022-07-23T08:30:03;7.75;;;5.60;;
10144;SDS011;5113;41.822;23.564;2022-07-23T08:33:11;6.43;;;5.57;;
10144;SDS011;5113;41.822;23.564;2022-07-23T08:36:37;6.07;;;5.35;;
10144;SDS011;5113;41.822;23.564;2022-07-23T08:39:45;5.75;;;5.32;;
10144;SDS011;5113;41.822;23.564;2022-07-23T08:42:52;6.47;;;5.88;;
10144;SDS011;5113;41.822;23.564;2022-07-23T08:45:58;6.32;;;5.72;;
10144;SDS011;5113;41.822;23.564;2022-07-23T08:49:06;6.38;;;5.78;;
10144;SDS011;5113;41.822;23.564;2022-07-23T08:52:13;5.97;;;5.13;;
10144;SDS011;5113;41.822;23.564;2022-07-23T08:55:22;6.80;;;5.88;;
10144;SDS011;5113;41.822;23.564;2022-07-23T08:58:29;7.35;;;5.85;;
10144;SDS011;5113;41.822;23.564;2022-07-23T09:01:36;5.95;;;5.00;;
10144;SDS011;5113;41.822;23.564;2022-07-23T09:04:42;5.72;;;4.82;;
10144;SDS011;5113;41.822;23.564;2022-07-23T09:08:05;5.35;;;4.70;;
10144;SDS011;5113;41.822;23.564;2022-07-23T09:11:15;4.82;;;4.43;;
10144;SDS011;5113;41.822;23.564;2022-07-23T09:14:35;6.93;;;5.22;;
10144;SDS011;5113;41.822;23.564;2022-07-23T09:17:42;8.50;;;5.03;;
10144;SDS011;5113;41.822;23.564;2022-07-23T09:20:48;8.52;;;4.95;;
10144;SDS011;5113;41.822;23.564;2022-07-23T09:23:55;7.95;;;4.93;;
10144;SDS011;5113;41.822;23.564;2022-07-23T09:27:05;5.75;;;4.35;;
10144;SDS011;5113;41.822;23.564;2022-07-23T09:30:11;5.65;;;4.85;;
10144;SDS011;5113;41.822;23.564;2022-07-23T09:33:18;7.75;;;4.70;;
10144;SDS011;5113;41.822;23.564;2022-07-23T09:36:33;8.15;;;6.18;;
10144;SDS011;5113;41.822;23.564;2022-07-23T09:39:41;4.47;;;3.95;;
10144;SDS011;5113;41.822;23.564;2022-07-23T09:42:55;3.85;;;3.47;;
10144;SDS011;5113;41.822;23.564;2022-07-23T09:46:18;12.40;;;7.15;;
10144;SDS011;5113;41.822;23.564;2022-07-23T09:49:26;7.90;;;5.38;;
10144;SDS011;5113;41.822;23.564;2022-07-23T09:52:33;6.97;;;5.15;;
10144;SDS011;5113;41.822;23.564;2022-07-23T09:55:41;5.43;;;3.90;;
10144;SDS011;5113;41.822;23.564;2022-07-23T09:58:49;6.18;;;4.38;;
10144;SDS011;5113;41.822;23.564;2022-07-23T10:01:57;5.28;;;4.45;;
10144;SDS011;5113;41.822;23.564;2022-07-23T10:05:05;4.18;;;3.83;;
10144;SDS011;5113;41.822;23.564;2022-07-23T10:08:12;5.30;;;4.35;;
10144;SDS011;5113;41.822;23.564;2022-07-23T10:11:18;9.70;;;4.43;;
10144;SDS011;5113;41.822;23.564;2022-07-23T10:14:27;4.78;;;4.25;;
10144;SDS011;5113;41.822;23.564;2022-07-23T10:17:36;8.73;;;4.35;;
10144;SDS011;5113;41.822;23.564;2022-07-23T10:20:43;5.85;;;4.20;;
10144;SDS011;5113;41.822;23.564;2022-07-23T10:23:58;6.05;;;4.57;;
10144;SDS011;5113;41.822;23.564;2022-07-23T10:27:20;6.82;;;4.28;;
10144;SDS011;5113;41.822;23.564;2022-07-23T10:31:00;5.63;;;4.10;;
10144;SDS011;5113;41.822;23.564;2022-07-23T10:34:12;5.82;;;4.15;;
10144;SDS011;5113;41.822;23.564;2022-07-23T10:37:26;5.57;;;4.00;;
10144;SDS011;5113;41.822;23.564;2022-07-23T10:40:38;10.48;;;4.93;;
10144;SDS011;5113;41.822;23.564;2022-07-23T10:44:06;4.38;;;4.00;;
10144;SDS011;5113;41.822;23.564;2022-07-23T10:47:23;10.40;;;6.72;;
10144;SDS011;5113;41.822;23.564;2022-07-23T10:51:07;7.47;;;4.97;;
10144;SDS011;5113;41.822;23.564;2022-07-23T10:54:20;6.40;;;4.90;;
10144;SDS011;5113;41.822;23.564;2022-07-23T10:57:27;4.82;;;4.43;;
10144;SDS011;5113;41.822;23.564;2022-07-23T11:00:34;4.82;;;4.35;;
10144;SDS011;5113;41.822;23.564;2022-07-23T11:03:42;5.07;;;4.45;;
10144;SDS011;5113;41.822;23.564;2022-07-23T11:07:07;15.52;;;10.13;;
10144;SDS011;5113;41.822;23.564;2022-07-23T11:10:31;6.20;;;5.47;;
10144;SDS011;5113;41.822;23.564;2022-07-23T11:13:40;6.40;;;4.63;;
10144;SDS011;5113;41.822;23.564;2022-07-23T11:16:48;8.43;;;5.00;;
10144;SDS011;5113;41.822;23.564;2022-07-23T11:23:21;11.07;;;5.43;;
10144;SDS011;5113;41.822;23.564;2022-07-23T11:30:05;6.03;;;5.50;;
10144;SDS011;5113;41.822;23.564;2022-07-23T11:33:17;6.07;;;5.15;;
10144;SDS011;5113;41.822;23.564;2022-07-23T11:36:27;6.82;;;5.28;;
10144;SDS011;5113;41.822;23.564;2022-07-23T11:39:33;6.40;;;4.72;;
10144;SDS011;5113;41.822;23.564;2022-07-23T11:42:50;9.30;;;4.20;;
10144;SDS011;5113;41.822;23.564;2022-07-23T11:45:59;10.10;;;4.38;;
10144;SDS011;5113;41.822;23.564;2022-07-23T11:49:06;5.40;;;4.85;;
10144;SDS011;5113;41.822;23.564;2022-07-23T11:52:14;4.85;;;4.35;;
10144;SDS011;5113;41.822;23.564;2022-07-23T11:55:21;5.20;;;4.70;;
10144;SDS011;5113;41.822;23.564;2022-07-23T11:58:27;6.88;;;4.47;;
10144;SDS011;5113;41.822;23.564;2022-07-23T12:01:35;8.63;;;4.55;;
10144;SDS011;5113;41.822;23.564;2022-07-23T12:04:44;7.25;;;5.07;;
10144;SDS011;5113;41.822;23.564;2022-07-23T12:07:54;4.57;;;4.07;;
10144;SDS011;5113;41.822;23.564;2022-07-23T12:11:02;8.02;;;5.13;;
10144;SDS011;5113;41.822;23.564;2022-07-23T12:14:11;7.00;;;6.03;;
10144;SDS011;5113;41.822;23.564;2022-07-23T12:17:17;7.13;;;6.43;;
10144;SDS011;5113;41.822;23.564;2022-07-23T12:20:25;8.88;;;4.90;;
10144;SDS011;5113;41.822;23.564;2022-07-23T12:23:34;6.07;;;5.57;;
10144;SDS011;5113;41.822;23.564;2022-07-23T12:30:16;4.68;;;4.28;;
10144;SDS011;5113;41.822;23.564;2022-07-23T12:33:27;9.15;;;5.22;;
10144;SDS011;5113;41.822;23.564;2022-07-23T12:36:37;9.52;;;5.00;;
10144;SDS011;5113;41.822;23.564;2022-07-23T12:39:46;5.88;;;5.30;;
10144;SDS011;5113;41.822;23.564;2022-07-23T12:42:54;6.40;;;4.70;;
10144;SDS011;5113;41.822;23.564;2022-07-23T12:46:02;7.40;;;4.63;;
10144;SDS011;5113;41.822;23.564;2022-07-23T12:49:11;5.32;;;4.65;;
10144;SDS011;5113;41.822;23.564;2022-07-23T12:52:34;7.63;;;5.78;;
10144;SDS011;5113;41.822;23.564;2022-07-23T12:55:42;6.40;;;4.95;;
10144;SDS011;5113;41.822;23.564;2022-07-23T12:59:09;10.10;;;4.93;;
10144;SDS011;5113;41.822;23.564;2022-07-23T13:02:18;6.63;;;4.45;;
10144;SDS011;5113;41.822;23.564;2022-07-23T13:05:25;6.07;;;5.28;;
10144;SDS011;5113;41.822;23.564;2022-07-23T13:08:33;5.70;;;4.28;;
10144;SDS011;5113;41.822;23.564;2022-07-23T13:11:42;12.85;;;4.50;;
10144;SDS011;5113;41.822;23.564;2022-07-23T13:14:51;7.30;;;4.28;;
10144;SDS011;5113;41.822;23.564;2022-07-23T13:17:57;6.97;;;5.20;;
10144;SDS011;5113;41.822;23.564;2022-07-23T13:21:03;5.13;;;4.40;;
10144;SDS011;5113;41.822;23.564;2022-07-23T13:24:10;7.18;;;4.75;;
10144;SDS011;5113;41.822;23.564;2022-07-23T13:27:19;4.75;;;4.22;;
10144;SDS011;5113;41.822;23.564;2022-07-23T13:30:27;4.72;;;4.43;;
10144;SDS011;5113;41.822;23.564;2022-07-23T13:33:34;6.05;;;4.65;;
10144;SDS011;5113;41.822;23.564;2022-07-23T13:36:41;6.88;;;4.65;;
10144;SDS011;5113;41.822;23.564;2022-07-23T13:39:48;9.25;;;4.78;;
10144;SDS011;5113;41.822;23.564;2022-07-23T13:42:56;7.03;;;4.90;;
10144;SDS011;5113;41.822;23.564;2022-07-23T13:46:03;8.45;;;4.32;;
10144;SDS011;5113;41.822;23.564;2022-07-23T13:49:09;5.15;;;4.63;;
10144;SDS011;5113;41.822;23.564;2022-07-23T13:52:17;9.35;;;4.47;;
10144;SDS011;5113;41.822;23.564;2022-07-23T13:55:23;8.93;;;4.72;;
10144;SDS011;5113;41.822;23.564;2022-07-23T13:58:32;7.80;;;4.75;;
10144;SDS011;5113;41.822;23.564;2022-07-23T14:01:38;6.60;;;4.10;;
10144;SDS011;5113;41.822;23.564;2022-07-23T14:05:05;6.28;;;5.35;;
10144;SDS011;5113;41.822;23.564;2022-07-23T14:08:14;5.93;;;5.00;;
10144;SDS011;5113;41.822;23.564;2022-07-23T14:11:20;9.05;;;4.70;;
10144;SDS011;5113;41.822;23.564;2022-07-23T14:14:30;6.32;;;4.22;;
10144;SDS011;5113;41.822;23.564;2022-07-23T14:17:37;5.47;;;4.93;;
10144;SDS011;5113;41.822;23.564;2022-07-23T14:20:46;5.05;;;4.15;;
10144;SDS011;5113;41.822;23.564;2022-07-23T14:23:52;8.38;;;4.40;;
10144;SDS011;5113;41.822;23.564;2022-07-23T14:26:59;6.53;;;4.40;;
10144;SDS011;5113;41.822;23.564;2022-07-23T14:30:09;9.02;;;5.30;;
10144;SDS011;5113;41.822;23.564;2022-07-23T14:33:17;7.22;;;4.45;;
10144;SDS011;5113;41.822;23.564;2022-07-23T14:36:24;6.30;;;4.50;;
10144;SDS011;5113;41.822;23.564;2022-07-23T14:39:32;5.00;;;4.50;;
10144;SDS011;5113;41.822;23.564;2022-07-23T14:42:38;6.35;;;4.57;;
10144;SDS011;5113;41.822;23.564;2022-07-23T14:45:46;9.77;;;5.65;;
10144;SDS011;5113;41.822;23.564;2022-07-23T14:48:52;7.65;;;4.90;;
10144;SDS011;5113;41.822;23.564;2022-07-23T14:51:59;6.65;;;4.82;;
10144;SDS011;5113;41.822;23.564;2022-07-23T14:55:06;9.32;;;5.25;;
10144;SDS011;5113;41.822;23.564;2022-07-23T14:58:13;5.32;;;4.82;;
10144;SDS011;5113;41.822;23.564;2022-07-23T15:01:20;5.20;;;4.70;;
10144;SDS011;5113;41.822;23.564;2022-07-23T15:04:26;7.38;;;4.53;;
10144;SDS011;5113;41.822;23.564;2022-07-23T15:07:41;5.35;;;4.82;;
10144;SDS011;5113;41.822;23.564;2022-07-23T15:10:48;5.90;;;4.32;;
10144;SDS011;5113;41.822;23.564;2022-07-23T15:13:54;10.10;;;5.50;;
10144;SDS011;5113;41.822;23.564;2022-07-23T15:17:02;12.43;;;4.80;;
10144;SDS011;5113;41.822;23.564;2022-07-23T15:20:09;4.30;;;4.00;;
10144;SDS011;5113;41.822;23.564;2022-07-23T15:23:18;6.20;;;4.70;;
10144;SDS011;5113;41.822;23.564;2022-07-23T15:26:24;6.10;;;4.70;;
10144;SDS011;5113;41.822;23.564;2022-07-23T15:29:30;6.72;;;4.40;;
10144;SDS011;5113;41.822;23.564;2022-07-23T15:32:38;5.78;;;5.20;;
10144;SDS011;5113;41.822;23.564;2022-07-23T15:35:45;5.50;;;5.00;;
10144;SDS011;5113;41.822;23.564;2022-07-23T15:38:52;6.85;;;5.10;;
10144;SDS011;5113;41.822;23.564;2022-07-23T15:41:58;8.15;;;4.60;;
10144;SDS011;5113;41.822;23.564;2022-07-23T15:45:05;9.43;;;5.88;;
10144;SDS011;5113;41.822;23.564;2022-07-23T15:48:15;6.35;;;5.78;;
10144;SDS011;5113;41.822;23.564;2022-07-23T15:51:23;5.47;;;4.47;;
10144;SDS011;5113;41.822;23.564;2022-07-23T15:54:29;6.70;;;5.75;;
10144;SDS011;5113;41.822;23.564;2022-07-23T15:57:38;5.63;;;5.13;;
10144;SDS011;5113;41.822;23.564;2022-07-23T16:00:44;10.80;;;6.07;;
10144;SDS011;5113;41.822;23.564;2022-07-23T16:03:52;13.52;;;7.32;;
10144;SDS011;5113;41.822;23.564;2022-07-23T16:06:58;5.47;;;4.85;;
10144;SDS011;5113;41.822;23.564;2022-07-23T16:10:05;9.27;;;5.68;;
10144;SDS011;5113;41.822;23.564;2022-07-23T16:13:14;86.78;;;32.40;;
10144;SDS011;5113;41.822;23.564;2022-07-23T16:16:20;134.65;;;47.08;;
10144;SDS011;5113;41.822;23.564;2022-07-23T16:19:30;22.02;;;11.85;;
10144;SDS011;5113;41.822;23.564;2022-07-23T16:22:36;9.15;;;6.57;;
10144;SDS011;5113;41.822;23.564;2022-07-23T16:25:42;6.40;;;5.10;;
10144;SDS011;5113;41.822;23.564;2022-07-23T16:28:49;6.60;;;4.53;;
10144;SDS011;5113;41.822;23.564;2022-07-23T16:31:56;5.60;;;5.00;;
10144;SDS011;5113;41.822;23.564;2022-07-23T16:35:04;10.15;;;6.35;;
10144;SDS011;5113;41.822;23.564;2022-07-23T16:38:18;13.27;;;7.50;;
10144;SDS011;5113;41.822;23.564;2022-07-23T16:41:26;8.57;;;5.95;;
10144;SDS011;5113;41.822;23.564;2022-07-23T16:44:32;9.38;;;6.25;;
10144;SDS011;5113;41.822;23.564;2022-07-23T16:47:39;14.68;;;7.35;;
10144;SDS011;5113;41.822;23.564;2022-07-23T16:50:47;5.28;;;4.75;;
10144;SDS011;5113;41.822;23.564;2022-07-23T16:53:53;7.00;;;4.82;;
10144;SDS011;5113;41.822;23.564;2022-07-23T16:57:00;5.22;;;4.72;;
10144;SDS011;5113;41.822;23.564;2022-07-23T17:00:07;6.78;;;5.85;;
10144;SDS011;5113;41.822;23.564;2022-07-23T17:03:15;5.90;;;5.13;;
10144;SDS011;5113;41.822;23.564;2022-07-23T17:06:23;6.13;;;5.60;;
10144;SDS011;5113;41.822;23.564;2022-07-23T17:09:29;5.55;;;5.05;;
10144;SDS011;5113;41.822;23.564;2022-07-23T17:12:36;10.00;;;5.30;;
10144;SDS011;5113;41.822;23.564;2022-07-23T17:15:42;7.63;;;4.95;;
10144;SDS011;5113;41.822;23.564;2022-07-23T17:18:49;7.00;;;5.30;;
10144;SDS011;5113;41.822;23.564;2022-07-23T17:21:56;8.45;;;4.60;;
10144;SDS011;5113;41.822;23.564;2022-07-23T17:25:03;6.68;;;5.15;;
10144;SDS011;5113;41.822;23.564;2022-07-23T17:28:16;9.80;;;5.43;;
10144;SDS011;5113;41.822;23.564;2022-07-23T17:31:22;10.40;;;5.00;;
10144;SDS011;5113;41.822;23.564;2022-07-23T17:34:28;5.53;;;5.03;;
10144;SDS011;5113;41.822;23.564;2022-07-23T17:37:36;8.35;;;5.97;;
10144;SDS011;5113;41.822;23.564;2022-07-23T17:40:42;12.38;;;7.22;;
10144;SDS011;5113;41.822;23.564;2022-07-23T17:43:48;8.52;;;5.95;;
10144;SDS011;5113;41.822;23.564;2022-07-23T17:46:54;8.35;;;6.35;;
10144;SDS011;5113;41.822;23.564;2022-07-23T17:50:01;10.73;;;6.32;;
10144;SDS011;5113;41.822;23.564;2022-07-23T17:53:09;7.05;;;5.63;;
10144;SDS011;5113;41.822;23.564;2022-07-23T17:56:15;8.70;;;5.85;;
10144;SDS011;5113;41.822;23.564;2022-07-23T17:59:22;6.15;;;5.55;;
10144;SDS011;5113;41.822;23.564;2022-07-23T18:02:28;8.10;;;5.72;;
10144;SDS011;5113;41.822;23.564;2022-07-23T18:05:34;5.53;;;5.03;;
10144;SDS011;5113;41.822;23.564;2022-07-23T18:08:43;10.73;;;5.43;;
10144;SDS011;5113;41.822;23.564;2022-07-23T18:11:50;6.97;;;5.95;;
10144;SDS011;5113;41.822;23.564;2022-07-23T18:14:56;11.80;;;6.25;;
10144;SDS011;5113;41.822;23.564;2022-07-23T18:18:09;9.55;;;5.80;;
10144;SDS011;5113;41.822;23.564;2022-07-23T18:21:15;13.25;;;8.13;;
10144;SDS011;5113;41.822;23.564;2022-07-23T18:24:23;16.50;;;9.45;;
10144;SDS011;5113;41.822;23.564;2022-07-23T18:27:29;12.27;;;8.85;;
10144;SDS011;5113;41.822;23.564;2022-07-23T18:30:36;18.25;;;8.20;;
10144;SDS011;5113;41.822;23.564;2022-07-23T18:33:43;14.88;;;7.70;;
10144;SDS011;5113;41.822;23.564;2022-07-23T18:36:49;12.40;;;8.50;;
10144;SDS011;5113;41.822;23.564;2022-07-23T18:39:58;14.63;;;10.10;;
10144;SDS011;5113;41.822;23.564;2022-07-23T18:43:04;27.45;;;12.75;;
10144;SDS011;5113;41.822;23.564;2022-07-23T18:46:11;18.45;;;13.05;;
10144;SDS011;5113;41.822;23.564;2022-07-23T18:49:17;23.38;;;11.45;;
10144;SDS011;5113;41.822;23.564;2022-07-23T18:52:23;16.63;;;10.63;;
10144;SDS011;5113;41.822;23.564;2022-07-23T18:55:31;14.10;;;9.15;;
10144;SDS011;5113;41.822;23.564;2022-07-23T18:58:37;22.70;;;9.38;;